Time;durP1;ratioP1;P1;durP2;ratioP2;P2;SDS_P1;SDS_P2;PMS_P1;PMS_P2;Temp;Humidity;BMP_temperature;BMP_pressure;BME280_temperature;BME280_humidity;BME280_pressure;Samples;Min_cycle;Max_cycle;Signal;HPM_P1;HPM_P2
2022/05/02 00:00:35;;;;;;;;;;;;;;;;;;1897243;28;8402;-66
2022/05/02 00:01:33;;;;;;;;;;;;;;;;;;1897144;28;7147;-65
2022/05/02 00:02:31;;;;;;;;;;;;;;;;;;1896900;28;7010;-64
2022/05/02 00:03:28;;;;;;;;;;;;;;;;;;1896673;28;8036;-66
2022/05/02 00:04:26;;;;;;;;;;;;;;;;;;1898089;28;7005;-68
2022/05/02 00:05:24;;;;;;;;;;;;;;;;;;1904385;28;8038;-67
2022/05/02 00:06:21;;;;;;;;;;;;;;;;;;1904135;28;7038;-66
2022/05/02 00:07:19;;;;;;;;;;;;;;;;;;1904594;28;7006;-67
2022/05/02 00:08:16;;;;;;;;;;;;;;;;;;1902628;28;7088;-68
2022/05/02 00:09:13;;;;;;;;;;;;;;;;;;1896874;28;7014;-66
2022/05/02 00:10:12;;;;;;;;;;;;;;;;;;1897389;28;7035;-66
2022/05/02 00:11:09;;;;;;;;;;;;;;;;;;1898343;28;7388;-68
2022/05/02 00:12:07;;;;;;;;;;;;;;;;;;1898731;28;7030;-66
2022/05/02 00:13:06;;;;;;;;;;;;;;;;;;1898281;28;7010;-66
2022/05/02 00:14:04;;;;;;;;;;;;;;;;;;1899674;28;7005;-66
2022/05/02 00:15:02;;;;;;;;;;;;;;;;;;1898660;28;7108;-67
2022/05/02 00:16:00;;;;;;;;;;;;;;;;;;1898602;28;7006;-66
2022/05/02 00:16:57;;;;;;;;;;;;;;;;;;1905646;28;7093;-67
2022/05/02 00:17:59;;;;;;;;;;;;;;;;;;1906177;28;7017;-67
2022/05/02 00:18:56;;;;;;;;;;;;;;;;;;1906896;28;7013;-67
2022/05/02 00:19:53;;;;;;;;;;;;;;;;;;1905780;28;7049;-66
2022/05/02 00:20:51;;;;;;;;;;;;;;;;;;1905778;28;7124;-66
2022/05/02 00:21:48;;;;;;;;;;;;;;;;;;1904645;28;8076;-67
2022/05/02 00:22:46;;;;;;;;;;;;;;;;;;1905561;28;7161;-66
2022/05/02 00:23:43;;;;;;;;;;;;;;;;;;1906233;28;7005;-67
2022/05/02 00:24:40;;;;;;;;;;;;;;;;;;1896958;28;7125;-66
2022/05/02 00:25:38;;;;;;;;;;;;;;;;;;1898817;28;7315;-67
2022/05/02 00:26:35;;;;;;;;;;;;;;;;;;1898899;28;8123;-68
2022/05/02 00:27:33;;;;;;;;;;;;;;;;;;1899154;28;7045;-66
2022/05/02 00:28:30;;;;;;;;;;;;;;;;;;1898907;28;7100;-67
2022/05/02 00:29:27;;;;;;;;;;;;;;;;;;1898460;28;7316;-66
2022/05/02 00:30:25;;;;;;;;;;;;;;;;;;1904473;28;7037;-66
2022/05/02 00:31:23;;;;;;;;;;;;;;;;;;1897717;28;8047;-66
2022/05/02 00:32:20;;;;;;;;;;;;;;;;;;1901816;28;7041;-67
2022/05/02 00:33:20;;;;;;;;;;;;;;;;;;1905498;28;7006;-66
2022/05/02 00:34:17;;;;;;;;;;;;;;;;;;1905974;28;7104;-68
2022/05/02 00:35:16;;;;;;;;;;;;;;;;;;1905875;28;7093;-67
2022/05/02 00:36:15;;;;;;;;;;;;;;;;;;1903897;28;7073;-67
2022/05/02 00:37:15;;;;;;;;;;;;;;;;;;1898492;28;8055;-66
2022/05/02 00:38:12;;;;;;;;;;;;;;;;;;1898672;28;7046;-66
2022/05/02 00:39:09;;;;;;;;;;;;;;;;;;1898182;28;7110;-66
2022/05/02 00:40:09;;;;;;;;;;;;;;;;;;1898550;28;7025;-66
2022/05/02 00:41:07;;;;;;;;;;;;;;;;;;1897775;28;7017;-67
2022/05/02 00:42:05;;;;;;;;;;;;;;;;;;1896370;28;7046;-66
2022/05/02 00:43:02;;;;;;;;;;;;;;;;;;1898755;28;7045;-67
2022/05/02 00:44:00;;;;;;;;;;;;;;;;;;1897983;28;7096;-65
2022/05/02 00:44:57;;;;;;;;;;;;;;;;;;1898001;28;7009;-67
2022/05/02 00:45:56;;;;;;;;;;;;;;;;;;1897053;28;7033;-65
2022/05/02 00:46:53;;;;;;;;;;;;;;;;;;1899096;28;7046;-66
2022/05/02 00:47:56;;;;;;;;;;;;;;;;;;1905641;28;7005;-65
2022/05/02 00:48:53;;;;;;;;;;;;;;;;;;1906207;28;7148;-66
2022/05/02 00:49:52;;;;;;;;;;;;;;;;;;1905588;28;7096;-67
2022/05/02 00:50:49;;;;;;;;;;;;;;;;;;1905728;28;7108;-66
2022/05/02 00:51:46;;;;;;;;;;;;;;;;;;1905486;28;8027;-67
2022/05/02 00:52:44;;;;;;;;;;;;;;;;;;1905817;28;7129;-66
2022/05/02 00:53:43;;;;;;;;;;;;;;;;;;1905363;28;8209;-66
2022/05/02 00:54:42;;;;;;;;;;;;;;;;;;1905597;28;7408;-66
2022/05/02 00:55:41;;;;;;;;;;;;;;;;;;1906055;28;7030;-67
2022/05/02 00:56:39;;;;;;;;;;;;;;;;;;1916625;28;7796;-68
2022/05/02 00:57:36;;;;;;;;;;;;;;;;;;1912908;28;7054;-66
2022/05/02 00:58:35;;;;;;;;;;;;;;;;;;1900235;28;8175;-67
2022/05/02 00:59:33;;;;;;;;;;;;;;;;;;1905773;28;7365;-68
2022/05/02 01:00:32;;;;;;;;;;;;;;;;;;1905437;28;7005;-66
2022/05/02 01:01:30;;;;;;;;;;;;;;;;;;1900491;28;7061;-66
2022/05/02 01:02:27;;;;;;;;;;;;;;;;;;1898443;28;7010;-66
2022/05/02 01:03:25;;;;;;;;;;;;;;;;;;1905597;28;7147;-66
2022/05/02 01:04:23;;;;;;;;;;;;;;;;;;1904722;28;7038;-66
2022/05/02 01:05:21;;;;;;;;;;;;;;;;;;1898557;28;7017;-67
2022/05/02 01:07:34;;;;;;;;;;;;;;;;;;1898607;28;7113;-66
2022/05/02 01:08:32;;;;;;;;;;;;;;;;;;1898445;28;7140;-66
2022/05/02 01:09:31;;;;;;;;;;;;;;;;;;1896885;28;8035;-67
2022/05/02 01:10:30;;;;;;;;;;;;;;;;;;1896732;28;7010;-66
2022/05/02 01:11:28;;;;;;;;;;;;;;;;;;1904817;28;7021;-66
2022/05/02 01:12:26;;;;;;;;;;;;;;;;;;1901944;28;7320;-67
2022/05/02 01:13:41;;;;;;;;;;;;;;;;;;1896717;28;7005;-66
2022/05/02 01:14:39;;;;;;;;;;;;;;;;;;1905798;28;7006;-67
2022/05/02 01:15:36;;;;;;;;;;;;;;;;;;1896867;28;7097;-67
2022/05/02 01:16:33;;;;;;;;;;;;;;;;;;1905377;28;7001;-67
2022/05/02 01:17:31;;;;;;;;;;;;;;;;;;1904742;28;7010;-66
2022/05/02 01:18:29;;;;;;;;;;;;;;;;;;1905406;28;7109;-67
2022/05/02 01:19:26;;;;;;;;;;;;;;;;;;1900961;28;7006;-66
2022/05/02 01:20:23;;;;;;;;;;;;;;;;;;1902957;28;7006;-65
2022/05/02 01:21:22;;;;;;;;;;;;;;;;;;1898998;28;7034;-67
2022/05/02 01:22:20;;;;;;;;;;;;;;;;;;1896634;28;7206;-67
2022/05/02 01:23:17;;;;;;;;;;;;;;;;;;1897999;28;7144;-67
2022/05/02 01:24:15;;;;;;;;;;;;;;;;;;1898151;28;7006;-66
2022/05/02 01:25:12;;;;;;;;;;;;;;;;;;1905471;28;7006;-66
2022/05/02 01:26:10;;;;;;;;;;;;;;;;;;1905951;28;8020;-67
2022/05/02 01:27:09;;;;;;;;;;;;;;;;;;1905830;28;8019;-67
2022/05/02 01:28:10;;;;;;;;;;;;;;;;;;1905029;28;7096;-67
2022/05/02 01:29:08;;;;;;;;;;;;;;;;;;1905562;28;7013;-65
2022/05/02 01:30:06;;;;;;;;;;;;;;;;;;1905637;28;7100;-67
2022/05/02 01:31:03;;;;;;;;;;;;;;;;;;1905673;28;8106;-66
2022/05/02 01:32:06;;;;;;;;;;;;;;;;;;1905085;28;7017;-66
2022/05/02 01:33:03;;;;;;;;;;;;;;;;;;1905132;28;7021;-67
2022/05/02 01:34:01;;;;;;;;;;;;;;;;;;1905498;28;7017;-67
2022/05/02 01:34:58;;;;;;;;;;;;;;;;;;1905393;28;7005;-66
2022/05/02 01:35:56;;;;;;;;;;;;;;;;;;1905087;28;7088;-68
2022/05/02 01:36:55;;;;;;;;;;;;;;;;;;1905221;28;7038;-67
2022/05/02 01:37:52;;;;;;;;;;;;;;;;;;1897667;28;7112;-67
2022/05/02 01:38:50;;;;;;;;;;;;;;;;;;1898305;28;7149;-67
2022/05/02 01:39:47;;;;;;;;;;;;;;;;;;1897884;28;8104;-67
2022/05/02 01:40:44;;;;;;;;;;;;;;;;;;1901898;28;7304;-67
2022/05/02 01:41:42;;;;;;;;;;;;;;;;;;1904913;28;7006;-67
2022/05/02 01:42:39;;;;;;;;;;;;;;;;;;1899434;28;7536;-67
2022/05/02 01:43:38;;;;;;;;;;;;;;;;;;1905340;28;7042;-66
2022/05/02 01:44:36;;;;;;;;;;;;;;;;;;1905346;28;7033;-67
2022/05/02 01:45:34;;;;;;;;;;;;;;;;;;1905635;28;7005;-66
2022/05/02 01:46:31;;;;;;;;;;;;;;;;;;1905163;28;7009;-67
2022/05/02 01:47:28;;;;;;;;;;;;;;;;;;1905527;28;7320;-66
2022/05/02 01:48:27;;;;;;;;;;;;;;;;;;1905273;28;7010;-67
2022/05/02 01:49:24;;;;;;;;;;;;;;;;;;1905036;28;7017;-67
2022/05/02 01:50:22;;;;;;;;;;;;;;;;;;1904690;28;7005;-67
2022/05/02 01:51:19;;;;;;;;;;;;;;;;;;1904949;28;7009;-66
2022/05/02 01:52:16;;;;;;;;;;;;;;;;;;1898361;28;7041;-66
2022/05/02 01:53:14;;;;;;;;;;;;;;;;;;1912318;28;7199;-67
2022/05/02 01:54:12;;;;;;;;;;;;;;;;;;1912142;28;7120;-67
2022/05/02 01:55:09;;;;;;;;;;;;;;;;;;1899730;28;7130;-67
2022/05/02 01:56:06;;;;;;;;;;;;;;;;;;1897843;28;7026;-67
2022/05/02 01:57:04;;;;;;;;;;;;;;;;;;1900555;28;7006;-67
2022/05/02 01:58:01;;;;;;;;;;;;;;;;;;1905609;28;8026;-67
2022/05/02 01:58:59;;;;;;;;;;;;;;;;;;1897625;28;7013;-68
2022/05/02 01:59:56;;;;;;;;;;;;;;;;;;1897662;28;7006;-67
2022/05/02 02:00:53;;;;;;;;;;;;;;;;;;1897479;28;7369;-67
2022/05/02 02:01:51;;;;;;;;;;;;;;;;;;1897987;28;7010;-66
2022/05/02 02:02:49;;;;;;;;;;;;;;;;;;1897759;28;7109;-64
2022/05/02 02:03:47;;;;;;;;;;;;;;;;;;1897453;28;7025;-66
2022/05/02 02:06:00;;;;;;;;;;;;;;;;;;1897333;28;8099;-66
2022/05/02 02:06:57;;;;;;;;;;;;;;;;;;1896539;28;7136;-67
2022/05/02 02:07:55;;;;;;;;;;;;;;;;;;1901811;28;7009;-67
2022/05/02 02:08:52;;;;;;;;;;;;;;;;;;1904734;28;7102;-66
2022/05/02 02:09:50;;;;;;;;;;;;;;;;;;1904834;28;7089;-66
2022/05/02 02:10:48;;;;;;;;;;;;;;;;;;1904831;28;7010;-67
2022/05/02 02:11:45;;;;;;;;;;;;;;;;;;1904807;28;7009;-66
2022/05/02 02:12:43;;;;;;;;;;;;;;;;;;1904986;28;7041;-67
2022/05/02 02:13:40;;;;;;;;;;;;;;;;;;1901255;28;7109;-67
2022/05/02 02:14:38;;;;;;;;;;;;;;;;;;1898348;28;7009;-66
2022/05/02 02:15:35;;;;;;;;;;;;;;;;;;1896763;28;9385;-65
2022/05/02 02:16:32;;;;;;;;;;;;;;;;;;1899713;28;7046;-66
2022/05/02 02:17:30;;;;;;;;;;;;;;;;;;1899888;28;7010;-66
2022/05/02 02:18:27;;;;;;;;;;;;;;;;;;1897856;28;7051;-67
2022/05/02 02:19:25;;;;;;;;;;;;;;;;;;1897545;28;7017;-67
2022/05/02 02:20:22;;;;;;;;;;;;;;;;;;1903206;28;7092;-66
2022/05/02 02:21:20;;;;;;;;;;;;;;;;;;1905833;28;7017;-65
2022/05/02 02:22:17;;;;;;;;;;;;;;;;;;1896674;28;7044;-67
2022/05/02 02:23:16;;;;;;;;;;;;;;;;;;1902431;28;7002;-66
2022/05/02 02:24:14;;;;;;;;;;;;;;;;;;1904801;28;7092;-67
2022/05/02 02:25:11;;;;;;;;;;;;;;;;;;1904656;28;7006;-68
2022/05/02 02:26:09;;;;;;;;;;;;;;;;;;1904786;28;8035;-64
2022/05/02 02:27:06;;;;;;;;;;;;;;;;;;1904756;28;7109;-66
2022/05/02 02:28:04;;;;;;;;;;;;;;;;;;1903296;28;8056;-68
2022/05/02 02:29:02;;;;;;;;;;;;;;;;;;1897911;28;7058;-65
2022/05/02 02:30:00;;;;;;;;;;;;;;;;;;1897638;28;7141;-68
2022/05/02 02:30:57;;;;;;;;;;;;;;;;;;1901419;28;7005;-66
2022/05/02 02:31:54;;;;;;;;;;;;;;;;;;1903965;28;9574;-65
2022/05/02 02:32:52;;;;;;;;;;;;;;;;;;1903737;28;7092;-66
2022/05/02 02:33:49;;;;;;;;;;;;;;;;;;1904149;28;7096;-66
2022/05/02 02:34:47;;;;;;;;;;;;;;;;;;1904606;28;7006;-65
2022/05/02 02:35:44;;;;;;;;;;;;;;;;;;1905739;28;7001;-67
2022/05/02 02:36:42;;;;;;;;;;;;;;;;;;1904982;28;7148;-68
2022/05/02 02:37:39;;;;;;;;;;;;;;;;;;1905005;28;7038;-67
2022/05/02 02:38:37;;;;;;;;;;;;;;;;;;1900760;28;7025;-67
2022/05/02 02:39:34;;;;;;;;;;;;;;;;;;1897708;28;7002;-67
2022/05/02 02:40:32;;;;;;;;;;;;;;;;;;1897975;28;7002;-66
2022/05/02 02:41:29;;;;;;;;;;;;;;;;;;1897626;28;7281;-66
2022/05/02 02:42:26;;;;;;;;;;;;;;;;;;1897992;28;7093;-68
2022/05/02 02:43:24;;;;;;;;;;;;;;;;;;1897256;28;8031;-67
2022/05/02 02:44:21;;;;;;;;;;;;;;;;;;1904155;28;7017;-66
2022/05/02 02:45:19;;;;;;;;;;;;;;;;;;1904268;28;7100;-67
2022/05/02 02:46:16;;;;;;;;;;;;;;;;;;1898174;28;7305;-67
2022/05/02 02:47:14;;;;;;;;;;;;;;;;;;1897192;28;7030;-66
2022/05/02 02:48:11;;;;;;;;;;;;;;;;;;1897651;28;7006;-66
2022/05/02 02:49:08;;;;;;;;;;;;;;;;;;1897833;28;7005;-66
2022/05/02 02:50:06;;;;;;;;;;;;;;;;;;1897623;28;7093;-67
2022/05/02 02:51:03;;;;;;;;;;;;;;;;;;1896835;28;7037;-66
2022/05/02 02:52:00;;;;;;;;;;;;;;;;;;1904468;28;8035;-68
2022/05/02 02:52:58;;;;;;;;;;;;;;;;;;1904606;28;7010;-65
2022/05/02 02:53:55;;;;;;;;;;;;;;;;;;1897380;28;7006;-66
2022/05/02 02:54:53;;;;;;;;;;;;;;;;;;1897946;28;8039;-65
2022/05/02 02:55:50;;;;;;;;;;;;;;;;;;1897779;28;7006;-66
2022/05/02 02:56:48;;;;;;;;;;;;;;;;;;1896982;28;7092;-65
2022/05/02 02:57:45;;;;;;;;;;;;;;;;;;1897464;28;8023;-66
2022/05/02 02:58:43;;;;;;;;;;;;;;;;;;1897071;28;7038;-66
2022/05/02 02:59:40;;;;;;;;;;;;;;;;;;1897144;28;7136;-69
2022/05/02 03:00:38;;;;;;;;;;;;;;;;;;1897295;28;7006;-66
2022/05/02 03:01:36;;;;;;;;;;;;;;;;;;1897296;28;7395;-67
2022/05/02 03:02:41;;;;;;;;;;;;;;;;;;1898097;28;7117;-67
2022/05/02 03:03:38;;;;;;;;;;;;;;;;;;1897159;28;7141;-66
2022/05/02 03:06:02;;;;;;;;;;;;;;;;;;1896744;28;7096;-67
2022/05/02 03:06:59;;;;;;;;;;;;;;;;;;1897376;28;7216;-67
2022/05/02 03:07:58;;;;;;;;;;;;;;;;;;1897348;28;7014;-66
2022/05/02 03:08:55;;;;;;;;;;;;;;;;;;1899227;28;7010;-67
2022/05/02 03:09:53;;;;;;;;;;;;;;;;;;1904661;28;7117;-66
2022/05/02 03:10:52;;;;;;;;;;;;;;;;;;1904530;28;7005;-65
2022/05/02 03:11:49;;;;;;;;;;;;;;;;;;1904248;28;7018;-65
2022/05/02 03:12:47;;;;;;;;;;;;;;;;;;1901666;28;8067;-68
2022/05/02 03:13:44;;;;;;;;;;;;;;;;;;1900709;28;7324;-65
2022/05/02 03:14:41;;;;;;;;;;;;;;;;;;1904769;28;7104;-65
2022/05/02 03:15:39;;;;;;;;;;;;;;;;;;1898416;28;7807;-67
2022/05/02 03:16:37;;;;;;;;;;;;;;;;;;1896773;28;8027;-67
2022/05/02 03:17:35;;;;;;;;;;;;;;;;;;1900768;28;7010;-66
2022/05/02 03:18:34;;;;;;;;;;;;;;;;;;1904813;28;8028;-66
2022/05/02 03:19:31;;;;;;;;;;;;;;;;;;1897812;28;7042;-66
2022/05/02 03:20:28;;;;;;;;;;;;;;;;;;1897719;28;7137;-67
2022/05/02 03:21:26;;;;;;;;;;;;;;;;;;1897571;28;7085;-67
2022/05/02 03:22:23;;;;;;;;;;;;;;;;;;1898489;28;7014;-66
2022/05/02 03:23:21;;;;;;;;;;;;;;;;;;1905281;28;7005;-68
2022/05/02 03:24:18;;;;;;;;;;;;;;;;;;1896349;28;8048;-68
2022/05/02 03:25:15;;;;;;;;;;;;;;;;;;1897236;28;7357;-66
2022/05/02 03:26:13;;;;;;;;;;;;;;;;;;1900831;28;7010;-66
2022/05/02 03:27:10;;;;;;;;;;;;;;;;;;1904240;28;7025;-66
2022/05/02 03:28:08;;;;;;;;;;;;;;;;;;1900479;28;7096;-66
2022/05/02 03:29:05;;;;;;;;;;;;;;;;;;1904751;28;7038;-66
2022/05/02 03:30:02;;;;;;;;;;;;;;;;;;1899231;28;7120;-67
2022/05/02 03:31:00;;;;;;;;;;;;;;;;;;1897278;28;7006;-66
2022/05/02 03:31:57;;;;;;;;;;;;;;;;;;1897376;28;7376;-66
2022/05/02 03:32:55;;;;;;;;;;;;;;;;;;1897318;28;7010;-65
2022/05/02 03:33:52;;;;;;;;;;;;;;;;;;1896462;28;7387;-67
2022/05/02 03:34:50;;;;;;;;;;;;;;;;;;1897078;28;7682;-67
2022/05/02 03:35:48;;;;;;;;;;;;;;;;;;1900800;28;7013;-65
2022/05/02 03:36:45;;;;;;;;;;;;;;;;;;1904415;28;7038;-66
2022/05/02 03:37:42;;;;;;;;;;;;;;;;;;1904478;28;7108;-66
2022/05/02 03:38:40;;;;;;;;;;;;;;;;;;1904923;28;7006;-67
2022/05/02 03:39:37;;;;;;;;;;;;;;;;;;1904767;28;7053;-66
2022/05/02 03:40:35;;;;;;;;;;;;;;;;;;1905158;28;7009;-66
2022/05/02 03:41:32;;;;;;;;;;;;;;;;;;1896447;28;7010;-66
2022/05/02 03:42:29;;;;;;;;;;;;;;;;;;1902679;28;7006;-66
2022/05/02 03:43:27;;;;;;;;;;;;;;;;;;1904036;28;8050;-66
2022/05/02 03:44:24;;;;;;;;;;;;;;;;;;1905496;28;7138;-68
2022/05/02 03:45:22;;;;;;;;;;;;;;;;;;1903961;28;7206;-66
2022/05/02 03:46:19;;;;;;;;;;;;;;;;;;1904766;28;7009;-67
2022/05/02 03:47:17;;;;;;;;;;;;;;;;;;1897395;28;7096;-66
2022/05/02 03:48:14;;;;;;;;;;;;;;;;;;1897103;28;7289;-66
2022/05/02 03:49:12;;;;;;;;;;;;;;;;;;1904049;28;7006;-66
2022/05/02 03:50:09;;;;;;;;;;;;;;;;;;1904823;28;7013;-66
2022/05/02 03:51:07;;;;;;;;;;;;;;;;;;1904491;28;7021;-65
2022/05/02 03:52:05;;;;;;;;;;;;;;;;;;1904955;28;7113;-67
2022/05/02 03:53:02;;;;;;;;;;;;;;;;;;1897948;28;7045;-67
2022/05/02 03:53:59;;;;;;;;;;;;;;;;;;1897886;28;7010;-66
2022/05/02 03:54:57;;;;;;;;;;;;;;;;;;1902584;28;7030;-66
2022/05/02 03:55:54;;;;;;;;;;;;;;;;;;1904110;28;7005;-66
2022/05/02 03:56:51;;;;;;;;;;;;;;;;;;1904645;28;7109;-65
2022/05/02 03:57:49;;;;;;;;;;;;;;;;;;1904483;28;7320;-66
2022/05/02 03:58:46;;;;;;;;;;;;;;;;;;1904966;28;8031;-65
2022/05/02 03:59:45;;;;;;;;;;;;;;;;;;1904346;28;7093;-66
2022/05/02 04:00:42;;;;;;;;;;;;;;;;;;1900684;28;7033;-68
2022/05/02 04:01:42;;;;;;;;;;;;;;;;;;1897054;28;8127;-67
2022/05/02 04:02:40;;;;;;;;;;;;;;;;;;1897014;28;7001;-66
2022/05/02 04:03:38;;;;;;;;;;;;;;;;;;1896362;28;7100;-67
2022/05/02 04:04:35;;;;;;;;;;;;;;;;;;1898802;28;7289;-65
2022/05/02 04:05:33;;;;;;;;;;;;;;;;;;1903217;28;7009;-66
2022/05/02 04:06:30;;;;;;;;;;;;;;;;;;1901827;28;7117;-66
2022/05/02 04:07:28;;;;;;;;;;;;;;;;;;1898030;28;7029;-68
2022/05/02 04:08:25;;;;;;;;;;;;;;;;;;1897033;28;7120;-67
2022/05/02 04:09:23;;;;;;;;;;;;;;;;;;1897111;28;7014;-67
2022/05/02 04:10:21;;;;;;;;;;;;;;;;;;1896628;28;7009;-67
2022/05/02 04:11:18;;;;;;;;;;;;;;;;;;1896126;28;7113;-67
2022/05/02 04:12:16;;;;;;;;;;;;;;;;;;1896990;28;7033;-67
2022/05/02 04:13:13;;;;;;;;;;;;;;;;;;1897289;28;7092;-67
2022/05/02 04:14:11;;;;;;;;;;;;;;;;;;1903258;28;7033;-66
2022/05/02 04:15:12;;;;;;;;;;;;;;;;;;1904890;28;7143;-66
2022/05/02 04:16:09;;;;;;;;;;;;;;;;;;1903392;28;7041;-66
2022/05/02 04:17:06;;;;;;;;;;;;;;;;;;1895846;28;7172;-66
2022/05/02 04:18:04;;;;;;;;;;;;;;;;;;1897456;28;7034;-67
2022/05/02 04:19:01;;;;;;;;;;;;;;;;;;1897615;28;7107;-66
2022/05/02 04:19:59;;;;;;;;;;;;;;;;;;1897329;28;7046;-65
2022/05/02 04:20:56;;;;;;;;;;;;;;;;;;1900764;28;7009;-67
2022/05/02 04:21:53;;;;;;;;;;;;;;;;;;1905002;28;7332;-67
2022/05/02 04:22:51;;;;;;;;;;;;;;;;;;1904482;28;7117;-65
2022/05/02 04:23:49;;;;;;;;;;;;;;;;;;1904570;28;7284;-67
2022/05/02 04:24:46;;;;;;;;;;;;;;;;;;1904447;28;7010;-66
2022/05/02 04:25:44;;;;;;;;;;;;;;;;;;1903946;28;8115;-67
2022/05/02 04:26:41;;;;;;;;;;;;;;;;;;1903597;28;7459;-66
2022/05/02 04:27:39;;;;;;;;;;;;;;;;;;1904136;28;8048;-66
2022/05/02 04:28:36;;;;;;;;;;;;;;;;;;1904675;28;7100;-67
2022/05/02 04:29:34;;;;;;;;;;;;;;;;;;1904482;28;7078;-67
2022/05/02 04:30:31;;;;;;;;;;;;;;;;;;1904588;28;8008;-66
2022/05/02 04:31:28;;;;;;;;;;;;;;;;;;1904411;28;7096;-67
2022/05/02 04:32:26;;;;;;;;;;;;;;;;;;1904395;28;7013;-66
2022/05/02 04:33:24;;;;;;;;;;;;;;;;;;1896272;28;7021;-66
2022/05/02 04:34:21;;;;;;;;;;;;;;;;;;1895918;28;7010;-67
2022/05/02 04:35:19;;;;;;;;;;;;;;;;;;1900526;28;7416;-66
2022/05/02 04:36:16;;;;;;;;;;;;;;;;;;1904411;28;7010;-66
2022/05/02 04:37:13;;;;;;;;;;;;;;;;;;1904690;28;8128;-67
2022/05/02 04:38:11;;;;;;;;;;;;;;;;;;1904440;28;7010;-67
2022/05/02 04:39:08;;;;;;;;;;;;;;;;;;1904281;28;7017;-66
2022/05/02 04:40:06;;;;;;;;;;;;;;;;;;1904798;28;7151;-67
2022/05/02 04:41:03;;;;;;;;;;;;;;;;;;1904240;28;7332;-67
2022/05/02 04:42:01;;;;;;;;;;;;;;;;;;1905229;28;7046;-66
2022/05/02 04:42:58;;;;;;;;;;;;;;;;;;1899482;28;7113;-67
2022/05/02 04:43:56;;;;;;;;;;;;;;;;;;1899174;28;7006;-67
2022/05/02 04:44:53;;;;;;;;;;;;;;;;;;1900302;28;7030;-68
2022/05/02 04:45:52;;;;;;;;;;;;;;;;;;1904240;28;8116;-66
2022/05/02 04:46:49;;;;;;;;;;;;;;;;;;1900909;28;7025;-66
2022/05/02 04:47:46;;;;;;;;;;;;;;;;;;1896640;28;7046;-67
2022/05/02 04:48:44;;;;;;;;;;;;;;;;;;1897497;28;7094;-66
2022/05/02 04:49:41;;;;;;;;;;;;;;;;;;1899802;28;7013;-67
2022/05/02 04:50:39;;;;;;;;;;;;;;;;;;1901331;28;7025;-66
2022/05/02 04:51:36;;;;;;;;;;;;;;;;;;1896825;28;7955;-67
2022/05/02 04:52:33;;;;;;;;;;;;;;;;;;1897514;28;7033;-68
2022/05/02 04:53:31;;;;;;;;;;;;;;;;;;1897240;28;7409;-67
2022/05/02 04:54:28;;;;;;;;;;;;;;;;;;1897359;28;7205;-67
2022/05/02 04:55:26;;;;;;;;;;;;;;;;;;1897468;28;8003;-66
2022/05/02 04:56:24;;;;;;;;;;;;;;;;;;1897265;28;7160;-66
2022/05/02 04:57:21;;;;;;;;;;;;;;;;;;1900666;28;7001;-66
2022/05/02 04:58:19;;;;;;;;;;;;;;;;;;1905705;28;7046;-66
2022/05/02 04:59:16;;;;;;;;;;;;;;;;;;1905793;28;7009;-66
2022/05/02 05:00:16;;;;;;;;;;;;;;;;;;1898600;28;7010;-67
2022/05/02 05:01:13;;;;;;;;;;;;;;;;;;1898554;28;7148;-66
2022/05/02 05:02:11;;;;;;;;;;;;;;;;;;1898553;28;7085;-65
2022/05/02 05:03:09;;;;;;;;;;;;;;;;;;1899118;28;7025;-67
2022/05/02 05:04:07;;;;;;;;;;;;;;;;;;1904032;28;7408;-66
2022/05/02 05:05:06;;;;;;;;;;;;;;;;;;1899622;28;7138;-67
2022/05/02 05:06:04;;;;;;;;;;;;;;;;;;1898492;28;7042;-67
2022/05/02 05:07:01;;;;;;;;;;;;;;;;;;1899036;28;7062;-67
2022/05/02 05:07:59;;;;;;;;;;;;;;;;;;1898024;28;7316;-68
2022/05/02 05:08:56;;;;;;;;;;;;;;;;;;1898579;28;8025;-67
2022/05/02 05:09:54;;;;;;;;;;;;;;;;;;1899154;28;7030;-66
2022/05/02 05:11:04;;;;;;;;;;;;;;;;;;1903778;28;7225;-67
2022/05/02 05:12:20;;;;;;;;;;;;;;;;;;1905723;28;7009;-66
2022/05/02 05:13:23;;;;;;;;;;;;;;;;;;1903096;28;7050;-67
2022/05/02 05:16:24;;;;;;;;;;;;;;;;;;1906181;28;7009;-67
2022/05/02 05:17:31;;;;;;;;;;;;;;;;;;1902371;28;7356;-67
2022/05/02 05:18:46;;;;;;;;;;;;;;;;;;1898644;28;7045;-67
2022/05/02 05:19:55;;;;;;;;;;;;;;;;;;1900292;28;7013;-67
2022/05/02 05:20:59;;;;;;;;;;;;;;;;;;1905760;28;7005;-65
2022/05/02 05:22:19;;;;;;;;;;;;;;;;;;1897083;28;7009;-65
2022/05/02 05:23:17;;;;;;;;;;;;;;;;;;1898722;28;7002;-67
2022/05/02 05:24:34;;;;;;;;;;;;;;;;;;1898382;28;7002;-67
2022/05/02 05:25:31;;;;;;;;;;;;;;;;;;1898462;28;7473;-65
2022/05/02 05:26:51;;;;;;;;;;;;;;;;;;1898223;28;7010;-67
2022/05/02 05:28:07;;;;;;;;;;;;;;;;;;1900339;28;7030;-67
2022/05/02 05:29:10;;;;;;;;;;;;;;;;;;1905572;28;7010;-67
2022/05/02 05:30:09;;;;;;;;;;;;;;;;;;1905974;28;8040;-67
2022/05/02 05:31:12;;;;;;;;;;;;;;;;;;1902428;28;7044;-68
2022/05/02 05:32:15;;;;;;;;;;;;;;;;;;1896347;28;7014;-67
2022/05/02 05:33:37;;;;;;;;;;;;;;;;;;1897739;28;8051;-65
2022/05/02 05:34:35;;;;;;;;;;;;;;;;;;1897700;28;7085;-66
2022/05/02 05:35:44;;;;;;;;;;;;;;;;;;1897115;28;7124;-66
2022/05/02 05:37:00;;;;;;;;;;;;;;;;;;1899046;28;8113;-67
2022/05/02 05:38:02;;;;;;;;;;;;;;;;;;1898355;28;7014;-67
2022/05/02 05:39:05;;;;;;;;;;;;;;;;;;1899019;28;8075;-66
2022/05/02 05:40:08;;;;;;;;;;;;;;;;;;1898558;28;7005;-66
2022/05/02 05:41:32;;;;;;;;;;;;;;;;;;1898721;28;7966;-67
2022/05/02 05:42:47;;;;;;;;;;;;;;;;;;1898256;28;7046;-67
2022/05/02 05:43:57;;;;;;;;;;;;;;;;;;1897268;28;7137;-67
2022/05/02 05:44:58;;;;;;;;;;;;;;;;;;1898514;28;7042;-66
2022/05/02 05:45:55;;;;;;;;;;;;;;;;;;1899398;28;7009;-68
2022/05/02 05:46:52;;;;;;;;;;;;;;;;;;1905800;28;7301;-67
2022/05/02 05:48:08;;;;;;;;;;;;;;;;;;1898441;28;7017;-67
2022/05/02 05:49:15;;;;;;;;;;;;;;;;;;1897835;28;7014;-67
2022/05/02 05:50:12;;;;;;;;;;;;;;;;;;1898336;28;7086;-66
2022/05/02 05:51:19;;;;;;;;;;;;;;;;;;1898399;28;7045;-68
2022/05/02 05:52:36;;;;;;;;;;;;;;;;;;1898122;28;7129;-67
2022/05/02 05:53:49;;;;;;;;;;;;;;;;;;1907089;28;7009;-67
2022/05/02 05:55:01;;;;;;;;;;;;;;;;;;1905550;28;7009;-67
2022/05/02 05:55:59;;;;;;;;;;;;;;;;;;1897702;28;7025;-66
2022/05/02 05:57:03;;;;;;;;;;;;;;;;;;1898273;28;7177;-68
2022/05/02 05:58:09;;;;;;;;;;;;;;;;;;1899148;28;8117;-65
2022/05/02 05:59:08;;;;;;;;;;;;;;;;;;1898427;28;7113;-68
2022/05/02 06:00:11;;;;;;;;;;;;;;;;;;1898557;28;7042;-66
2022/05/02 06:01:13;;;;;;;;;;;;;;;;;;1897600;28;7120;-65
2022/05/02 06:02:11;;;;;;;;;;;;;;;;;;1897590;28;8032;-66
2022/05/02 06:03:16;;;;;;;;;;;;;;;;;;1897923;28;7105;-67
2022/05/02 06:04:14;;;;;;;;;;;;;;;;;;1898038;28;7092;-68
2022/05/02 06:05:15;;;;;;;;;;;;;;;;;;1897786;28;7107;-67
2022/05/02 06:06:15;;;;;;;;;;;;;;;;;;1898061;28;7009;-66
2022/05/02 06:07:13;;;;;;;;;;;;;;;;;;1903176;28;7005;-66
2022/05/02 06:08:13;;;;;;;;;;;;;;;;;;1905663;28;7316;-67
2022/05/02 06:09:14;;;;;;;;;;;;;;;;;;1905748;28;7121;-66
2022/05/02 06:10:14;;;;;;;;;;;;;;;;;;1906004;28;7084;-67
2022/05/02 06:11:15;;;;;;;;;;;;;;;;;;1905371;28;7109;-66
2022/05/02 06:12:14;;;;;;;;;;;;;;;;;;1905106;28;8031;-66
2022/05/02 06:13:14;;;;;;;;;;;;;;;;;;1905374;28;7009;-68
2022/05/02 06:18:27;;;;;;;;;;;;;;;;;;1901720;28;7348;-66
2022/05/02 06:18:31;;;;;;;;;;;;;;;;;;1898163;28;7321;-67
2022/05/02 06:19:29;;;;;;;;;;;;;;;;;;1899518;28;8040;-68
2022/05/02 06:20:29;;;;;;;;;;;;;;;;;;1905272;28;7009;-69
2022/05/02 06:21:27;;;;;;;;;;;;;;;;;;1905895;28;7138;-67
2022/05/02 06:22:27;;;;;;;;;;;;;;;;;;1905723;28;7042;-67
2022/05/02 06:23:26;;;;;;;;;;;;;;;;;;1896891;28;7022;-66
2022/05/02 06:24:28;;;;;;;;;;;;;;;;;;1897967;28;7089;-66
2022/05/02 06:25:28;;;;;;;;;;;;;;;;;;1898104;28;7162;-67
2022/05/02 06:26:26;;;;;;;;;;;;;;;;;;1897919;28;7006;-67
2022/05/02 06:27:23;;;;;;;;;;;;;;;;;;1899008;28;7137;-67
2022/05/02 06:28:23;;;;;;;;;;;;;;;;;;1897731;28;8020;-67
2022/05/02 06:29:20;;;;;;;;;;;;;;;;;;1897740;28;7002;-68
2022/05/02 06:30:18;;;;;;;;;;;;;;;;;;1901223;28;7005;-68
2022/05/02 06:31:18;;;;;;;;;;;;;;;;;;1897453;28;8009;-68
2022/05/02 06:32:16;;;;;;;;;;;;;;;;;;1897991;28;7021;-66
2022/05/02 06:33:14;;;;;;;;;;;;;;;;;;1899847;28;9434;-67
2022/05/02 06:34:20;;;;;;;;;;;;;;;;;;1896609;28;7017;-67
2022/05/02 06:35:18;;;;;;;;;;;;;;;;;;1896296;28;7035;-67
2022/05/02 06:36:27;;;;;;;;;;;;;;;;;;1897621;28;7093;-68
2022/05/02 06:37:33;;;;;;;;;;;;;;;;;;1897949;28;7014;-65
2022/05/02 06:38:49;;;;;;;;;;;;;;;;;;1897175;28;7339;-67
2022/05/02 06:40:04;;;;;;;;;;;;;;;;;;1895449;28;7148;-67
2022/05/02 06:41:16;;;;;;;;;;;;;;;;;;1897116;28;7105;-66
2022/05/02 06:42:21;;;;;;;;;;;;;;;;;;1896654;28;7207;-67
2022/05/02 06:43:33;;;;;;;;;;;;;;;;;;1895633;28;7043;-67
2022/05/02 06:44:49;;;;;;;;;;;;;;;;;;1896852;28;7376;-66
2022/05/02 06:45:50;;;;;;;;;;;;;;;;;;1896884;28;7010;-66
2022/05/02 06:46:57;;;;;;;;;;;;;;;;;;1897468;28;7013;-67
2022/05/02 06:47:54;;;;;;;;;;;;;;;;;;1896886;28;7210;-67
2022/05/02 06:48:51;;;;;;;;;;;;;;;;;;1896794;28;7017;-66
2022/05/02 06:49:51;;;;;;;;;;;;;;;;;;1897321;28;8040;-68
2022/05/02 06:50:54;;;;;;;;;;;;;;;;;;1898342;28;7005;-66
2022/05/02 06:51:57;;;;;;;;;;;;;;;;;;1899881;28;7092;-67
2022/05/02 06:52:54;;;;;;;;;;;;;;;;;;1896839;28;7013;-66
2022/05/02 06:53:57;;;;;;;;;;;;;;;;;;1898343;28;7399;-67
2022/05/02 06:54:55;;;;;;;;;;;;;;;;;;1897088;28;7092;-67
2022/05/02 06:55:55;;;;;;;;;;;;;;;;;;1898567;28;9871;-67
2022/05/02 06:57:05;;;;;;;;;;;;;;;;;;1896447;28;7009;-67
2022/05/02 06:58:02;;;;;;;;;;;;;;;;;;1897656;28;7125;-67
2022/05/02 06:58:59;;;;;;;;;;;;;;;;;;1896196;28;7131;-67
2022/05/02 07:00:06;;;;;;;;;;;;;;;;;;1896564;28;7006;-66
2022/05/02 07:01:14;;;;;;;;;;;;;;;;;;1896959;28;7005;-67